sensor_id;sensor_type;location;lat;lon;timestamp;P1;durP1;ratioP1;P2;durP2;ratioP2
18228;SDS011;9239;50.932;3.142;2023-01-19T00:00:27;8.60;;;6.10;;
18228;SDS011;9239;50.932;3.142;2023-01-19T00:02:54;7.93;;;6.20;;
18228;SDS011;9239;50.932;3.142;2023-01-19T00:05:21;8.90;;;6.03;;
18228;SDS011;9239;50.932;3.142;2023-01-19T00:07:48;8.50;;;6.13;;
18228;SDS011;9239;50.932;3.142;2023-01-19T00:10:15;12.97;;;5.97;;
18228;SDS011;9239;50.932;3.142;2023-01-19T00:12:44;11.70;;;7.20;;
18228;SDS011;9239;50.932;3.142;2023-01-19T00:15:11;9.10;;;6.57;;
18228;SDS011;9239;50.932;3.142;2023-01-19T00:17:38;7.17;;;6.47;;
18228;SDS011;9239;50.932;3.142;2023-01-19T00:20:06;9.67;;;6.50;;
18228;SDS011;9239;50.932;3.142;2023-01-19T00:22:34;9.90;;;6.23;;
18228;SDS011;9239;50.932;3.142;2023-01-19T00:25:01;11.77;;;6.80;;
18228;SDS011;9239;50.932;3.142;2023-01-19T00:27:28;11.63;;;6.57;;
18228;SDS011;9239;50.932;3.142;2023-01-19T00:30:00;9.40;;;6.40;;
18228;SDS011;9239;50.932;3.142;2023-01-19T00:32:27;7.70;;;6.40;;
18228;SDS011;9239;50.932;3.142;2023-01-19T00:34:54;14.90;;;6.53;;
18228;SDS011;9239;50.932;3.142;2023-01-19T00:37:21;10.97;;;6.30;;
18228;SDS011;9239;50.932;3.142;2023-01-19T00:39:48;7.37;;;6.60;;
18228;SDS011;9239;50.932;3.142;2023-01-19T00:42:15;8.23;;;6.80;;
18228;SDS011;9239;50.932;3.142;2023-01-19T00:45:00;7.60;;;6.13;;
18228;SDS011;9239;50.932;3.142;2023-01-19T00:47:27;11.57;;;6.47;;
18228;SDS011;9239;50.932;3.142;2023-01-19T00:49:54;8.73;;;6.10;;
18228;SDS011;9239;50.932;3.142;2023-01-19T00:52:21;9.80;;;6.20;;
18228;SDS011;9239;50.932;3.142;2023-01-19T00:54:48;6.87;;;6.17;;
18228;SDS011;9239;50.932;3.142;2023-01-19T00:57:15;9.23;;;6.73;;
18228;SDS011;9239;50.932;3.142;2023-01-19T00:59:43;8.27;;;5.77;;
18228;SDS011;9239;50.932;3.142;2023-01-19T01:02:11;9.27;;;6.33;;
18228;SDS011;9239;50.932;3.142;2023-01-19T01:04:38;13.97;;;6.97;;
18228;SDS011;9239;50.932;3.142;2023-01-19T01:07:05;9.83;;;6.10;;
18228;SDS011;9239;50.932;3.142;2023-01-19T01:09:32;8.43;;;5.70;;
18228;SDS011;9239;50.932;3.142;2023-01-19T01:11:59;14.37;;;6.83;;
18228;SDS011;9239;50.932;3.142;2023-01-19T01:14:26;8.67;;;6.57;;
18228;SDS011;9239;50.932;3.142;2023-01-19T01:16:53;11.00;;;5.83;;
18228;SDS011;9239;50.932;3.142;2023-01-19T01:19:21;7.23;;;6.47;;
18228;SDS011;9239;50.932;3.142;2023-01-19T01:21:48;11.53;;;5.60;;
18228;SDS011;9239;50.932;3.142;2023-01-19T01:24:15;7.97;;;5.70;;
18228;SDS011;9239;50.932;3.142;2023-01-19T01:26:42;12.80;;;5.90;;
18228;SDS011;9239;50.932;3.142;2023-01-19T01:29:10;11.63;;;6.30;;
18228;SDS011;9239;50.932;3.142;2023-01-19T01:31:37;7.50;;;5.63;;
18228;SDS011;9239;50.932;3.142;2023-01-19T01:34:04;12.07;;;5.83;;
18228;SDS011;9239;50.932;3.142;2023-01-19T01:36:32;10.27;;;6.13;;
18228;SDS011;9239;50.932;3.142;2023-01-19T01:39:00;11.27;;;6.47;;
18228;SDS011;9239;50.932;3.142;2023-01-19T01:41:27;13.40;;;6.47;;
18228;SDS011;9239;50.932;3.142;2023-01-19T01:43:54;12.53;;;6.37;;
18228;SDS011;9239;50.932;3.142;2023-01-19T01:46:24;9.00;;;6.67;;
18228;SDS011;9239;50.932;3.142;2023-01-19T01:48:53;10.27;;;6.20;;
18228;SDS011;9239;50.932;3.142;2023-01-19T01:51:27;11.87;;;7.03;;
18228;SDS011;9239;50.932;3.142;2023-01-19T01:54:10;9.73;;;5.63;;
18228;SDS011;9239;50.932;3.142;2023-01-19T01:56:42;11.10;;;6.00;;
18228;SDS011;9239;50.932;3.142;2023-01-19T01:59:12;10.17;;;5.40;;
18228;SDS011;9239;50.932;3.142;2023-01-19T02:01:49;10.70;;;6.27;;
18228;SDS011;9239;50.932;3.142;2023-01-19T02:04:34;12.50;;;6.57;;
18228;SDS011;9239;50.932;3.142;2023-01-19T02:07:02;12.17;;;7.37;;
18228;SDS011;9239;50.932;3.142;2023-01-19T02:09:48;9.13;;;5.73;;
18228;SDS011;9239;50.932;3.142;2023-01-19T02:12:32;9.37;;;6.53;;
18228;SDS011;9239;50.932;3.142;2023-01-19T02:15:17;10.97;;;5.97;;
18228;SDS011;9239;50.932;3.142;2023-01-19T02:17:45;8.80;;;6.07;;
18228;SDS011;9239;50.932;3.142;2023-01-19T02:20:12;12.37;;;7.13;;
18228;SDS011;9239;50.932;3.142;2023-01-19T02:22:42;12.37;;;6.03;;
18228;SDS011;9239;50.932;3.142;2023-01-19T02:25:14;12.13;;;5.87;;
18228;SDS011;9239;50.932;3.142;2023-01-19T02:27:43;8.83;;;6.50;;
18228;SDS011;9239;50.932;3.142;2023-01-19T02:30:10;13.93;;;6.40;;
18228;SDS011;9239;50.932;3.142;2023-01-19T02:32:40;11.63;;;6.73;;
18228;SDS011;9239;50.932;3.142;2023-01-19T02:35:08;10.27;;;6.60;;
18228;SDS011;9239;50.932;3.142;2023-01-19T02:37:36;14.03;;;5.87;;
18228;SDS011;9239;50.932;3.142;2023-01-19T02:40:05;15.50;;;6.30;;
18228;SDS011;9239;50.932;3.142;2023-01-19T02:42:37;9.87;;;6.63;;
18228;SDS011;9239;50.932;3.142;2023-01-19T02:45:08;10.67;;;7.00;;
18228;SDS011;9239;50.932;3.142;2023-01-19T02:47:36;14.07;;;7.13;;
18228;SDS011;9239;50.932;3.142;2023-01-19T02:50:05;12.87;;;6.90;;
18228;SDS011;9239;50.932;3.142;2023-01-19T02:53:20;11.80;;;7.03;;
18228;SDS011;9239;50.932;3.142;2023-01-19T02:56:04;12.00;;;7.13;;
18228;SDS011;9239;50.932;3.142;2023-01-19T02:58:43;14.80;;;6.50;;
18228;SDS011;9239;50.932;3.142;2023-01-19T03:01:18;10.33;;;6.63;;
18228;SDS011;9239;50.932;3.142;2023-01-19T03:03:53;7.83;;;5.97;;
18228;SDS011;9239;50.932;3.142;2023-01-19T03:06:28;12.03;;;6.93;;
18228;SDS011;9239;50.932;3.142;2023-01-19T03:09:03;13.53;;;6.93;;
18228;SDS011;9239;50.932;3.142;2023-01-19T03:11:39;12.53;;;6.70;;
18228;SDS011;9239;50.932;3.142;2023-01-19T03:14:11;11.83;;;6.53;;
18228;SDS011;9239;50.932;3.142;2023-01-19T03:16:44;8.37;;;6.23;;
18228;SDS011;9239;50.932;3.142;2023-01-19T03:19:14;11.07;;;6.33;;
18228;SDS011;9239;50.932;3.142;2023-01-19T03:21:46;11.17;;;6.77;;
18228;SDS011;9239;50.932;3.142;2023-01-19T03:24:16;11.70;;;6.37;;
18228;SDS011;9239;50.932;3.142;2023-01-19T03:26:46;12.03;;;7.03;;
18228;SDS011;9239;50.932;3.142;2023-01-19T03:29:21;12.03;;;6.70;;
18228;SDS011;9239;50.932;3.142;2023-01-19T03:31:53;12.57;;;7.40;;
18228;SDS011;9239;50.932;3.142;2023-01-19T03:34:25;9.20;;;6.90;;
18228;SDS011;9239;50.932;3.142;2023-01-19T03:36:54;12.47;;;7.50;;
18228;SDS011;9239;50.932;3.142;2023-01-19T03:39:26;14.13;;;7.10;;
18228;SDS011;9239;50.932;3.142;2023-01-19T03:41:55;10.43;;;7.70;;
18228;SDS011;9239;50.932;3.142;2023-01-19T03:44:25;15.97;;;8.43;;
18228;SDS011;9239;50.932;3.142;2023-01-19T03:46:55;18.43;;;9.63;;
18228;SDS011;9239;50.932;3.142;2023-01-19T03:49:23;13.17;;;9.47;;
18228;SDS011;9239;50.932;3.142;2023-01-19T03:51:50;21.27;;;11.90;;
18228;SDS011;9239;50.932;3.142;2023-01-19T03:54:20;16.07;;;8.60;;
18228;SDS011;9239;50.932;3.142;2023-01-19T03:56:47;9.97;;;7.23;;
18228;SDS011;9239;50.932;3.142;2023-01-19T03:59:14;10.50;;;7.40;;
18228;SDS011;9239;50.932;3.142;2023-01-19T04:01:43;13.90;;;7.67;;
18228;SDS011;9239;50.932;3.142;2023-01-19T04:04:09;11.13;;;6.97;;
18228;SDS011;9239;50.932;3.142;2023-01-19T04:06:37;12.70;;;7.23;;
18228;SDS011;9239;50.932;3.142;2023-01-19T04:09:04;10.57;;;7.57;;
18228;SDS011;9239;50.932;3.142;2023-01-19T04:11:31;14.67;;;7.43;;
18228;SDS011;9239;50.932;3.142;2023-01-19T04:13:58;9.00;;;7.53;;
18228;SDS011;9239;50.932;3.142;2023-01-19T04:16:25;13.30;;;7.93;;
18228;SDS011;9239;50.932;3.142;2023-01-19T04:18:54;12.83;;;6.87;;
18228;SDS011;9239;50.932;3.142;2023-01-19T04:21:21;13.70;;;7.43;;
18228;SDS011;9239;50.932;3.142;2023-01-19T04:23:48;11.60;;;7.80;;
18228;SDS011;9239;50.932;3.142;2023-01-19T04:26:15;12.57;;;7.33;;
18228;SDS011;9239;50.932;3.142;2023-01-19T04:28:42;12.60;;;8.03;;
18228;SDS011;9239;50.932;3.142;2023-01-19T04:31:09;12.93;;;7.50;;
18228;SDS011;9239;50.932;3.142;2023-01-19T04:33:36;10.33;;;6.93;;
18228;SDS011;9239;50.932;3.142;2023-01-19T04:36:05;14.07;;;7.90;;
18228;SDS011;9239;50.932;3.142;2023-01-19T04:38:32;17.87;;;7.60;;
18228;SDS011;9239;50.932;3.142;2023-01-19T04:40:59;17.27;;;7.90;;
18228;SDS011;9239;50.932;3.142;2023-01-19T04:43:26;15.63;;;8.33;;
18228;SDS011;9239;50.932;3.142;2023-01-19T04:45:53;15.77;;;9.50;;
18228;SDS011;9239;50.932;3.142;2023-01-19T04:48:20;15.93;;;8.20;;
18228;SDS011;9239;50.932;3.142;2023-01-19T04:50:47;13.70;;;7.50;;
18228;SDS011;9239;50.932;3.142;2023-01-19T04:53:17;12.73;;;8.93;;
18228;SDS011;9239;50.932;3.142;2023-01-19T04:55:44;16.17;;;8.17;;
18228;SDS011;9239;50.932;3.142;2023-01-19T04:58:12;13.03;;;8.33;;
18228;SDS011;9239;50.932;3.142;2023-01-19T05:00:39;23.43;;;8.80;;
18228;SDS011;9239;50.932;3.142;2023-01-19T05:03:06;14.40;;;8.70;;
18228;SDS011;9239;50.932;3.142;2023-01-19T05:05:33;17.60;;;8.60;;
18228;SDS011;9239;50.932;3.142;2023-01-19T05:08:00;15.47;;;8.93;;
18228;SDS011;9239;50.932;3.142;2023-01-19T05:10:28;11.93;;;7.33;;
18228;SDS011;9239;50.932;3.142;2023-01-19T05:12:55;14.60;;;10.23;;
18228;SDS011;9239;50.932;3.142;2023-01-19T05:15:22;16.23;;;10.43;;
18228;SDS011;9239;50.932;3.142;2023-01-19T05:17:48;13.27;;;8.90;;
18228;SDS011;9239;50.932;3.142;2023-01-19T05:20:16;10.23;;;8.27;;
18228;SDS011;9239;50.932;3.142;2023-01-19T05:22:47;14.93;;;8.87;;
18228;SDS011;9239;50.932;3.142;2023-01-19T05:25:14;14.43;;;9.07;;
18228;SDS011;9239;50.932;3.142;2023-01-19T05:27:43;12.93;;;8.43;;
18228;SDS011;9239;50.932;3.142;2023-01-19T05:30:10;14.47;;;8.30;;
18228;SDS011;9239;50.932;3.142;2023-01-19T05:32:38;15.03;;;9.07;;
18228;SDS011;9239;50.932;3.142;2023-01-19T05:35:05;14.43;;;8.73;;
18228;SDS011;9239;50.932;3.142;2023-01-19T05:37:33;14.50;;;8.80;;
18228;SDS011;9239;50.932;3.142;2023-01-19T05:40:00;16.10;;;8.90;;
18228;SDS011;9239;50.932;3.142;2023-01-19T05:42:26;12.83;;;9.20;;
18228;SDS011;9239;50.932;3.142;2023-01-19T05:44:55;12.60;;;8.47;;
18228;SDS011;9239;50.932;3.142;2023-01-19T05:47:23;21.13;;;9.67;;
18228;SDS011;9239;50.932;3.142;2023-01-19T05:49:50;17.47;;;8.77;;
18228;SDS011;9239;50.932;3.142;2023-01-19T05:52:17;13.83;;;9.43;;
18228;SDS011;9239;50.932;3.142;2023-01-19T05:54:43;19.03;;;9.83;;
18228;SDS011;9239;50.932;3.142;2023-01-19T05:57:10;15.67;;;9.37;;
18228;SDS011;9239;50.932;3.142;2023-01-19T05:59:37;13.63;;;8.10;;
18228;SDS011;9239;50.932;3.142;2023-01-19T06:02:05;13.27;;;8.77;;
18228;SDS011;9239;50.932;3.142;2023-01-19T06:04:32;17.10;;;9.77;;
18228;SDS011;9239;50.932;3.142;2023-01-19T06:06:59;16.07;;;10.00;;
18228;SDS011;9239;50.932;3.142;2023-01-19T06:09:27;18.63;;;9.20;;
18228;SDS011;9239;50.932;3.142;2023-01-19T06:11:54;13.97;;;8.53;;
18228;SDS011;9239;50.932;3.142;2023-01-19T06:14:23;12.10;;;8.30;;
18228;SDS011;9239;50.932;3.142;2023-01-19T06:16:50;15.80;;;9.23;;
18228;SDS011;9239;50.932;3.142;2023-01-19T06:19:18;15.20;;;9.27;;
18228;SDS011;9239;50.932;3.142;2023-01-19T06:21:46;15.93;;;9.50;;
18228;SDS011;9239;50.932;3.142;2023-01-19T06:24:16;15.77;;;9.23;;
18228;SDS011;9239;50.932;3.142;2023-01-19T06:26:43;15.37;;;8.97;;
18228;SDS011;9239;50.932;3.142;2023-01-19T06:29:10;14.20;;;8.53;;
18228;SDS011;9239;50.932;3.142;2023-01-19T06:31:38;16.13;;;9.13;;
18228;SDS011;9239;50.932;3.142;2023-01-19T06:34:05;13.90;;;8.70;;
18228;SDS011;9239;50.932;3.142;2023-01-19T06:36:35;14.13;;;9.43;;
18228;SDS011;9239;50.932;3.142;2023-01-19T06:39:02;16.50;;;9.40;;
18228;SDS011;9239;50.932;3.142;2023-01-19T06:41:30;18.20;;;9.93;;
18228;SDS011;9239;50.932;3.142;2023-01-19T06:43:57;15.53;;;9.10;;
18228;SDS011;9239;50.932;3.142;2023-01-19T06:46:24;13.00;;;8.97;;
18228;SDS011;9239;50.932;3.142;2023-01-19T06:48:51;14.13;;;8.60;;
18228;SDS011;9239;50.932;3.142;2023-01-19T06:51:19;15.50;;;8.73;;
18228;SDS011;9239;50.932;3.142;2023-01-19T06:53:47;13.77;;;8.40;;
18228;SDS011;9239;50.932;3.142;2023-01-19T06:56:14;12.00;;;8.80;;
18228;SDS011;9239;50.932;3.142;2023-01-19T06:58:41;17.07;;;9.23;;
18228;SDS011;9239;50.932;3.142;2023-01-19T07:01:08;15.43;;;9.27;;
18228;SDS011;9239;50.932;3.142;2023-01-19T07:03:35;13.07;;;9.33;;
18228;SDS011;9239;50.932;3.142;2023-01-19T07:06:03;17.00;;;9.27;;
18228;SDS011;9239;50.932;3.142;2023-01-19T07:08:31;17.90;;;10.70;;
18228;SDS011;9239;50.932;3.142;2023-01-19T07:11:00;16.47;;;10.07;;
18228;SDS011;9239;50.932;3.142;2023-01-19T07:13:28;22.77;;;13.00;;
18228;SDS011;9239;50.932;3.142;2023-01-19T07:15:55;13.27;;;10.00;;
18228;SDS011;9239;50.932;3.142;2023-01-19T07:18:22;17.93;;;10.40;;
18228;SDS011;9239;50.932;3.142;2023-01-19T07:20:49;16.90;;;9.53;;
18228;SDS011;9239;50.932;3.142;2023-01-19T07:23:16;16.40;;;9.73;;
18228;SDS011;9239;50.932;3.142;2023-01-19T07:25:43;14.27;;;9.87;;
18228;SDS011;9239;50.932;3.142;2023-01-19T07:28:12;15.53;;;8.63;;
18228;SDS011;9239;50.932;3.142;2023-01-19T07:30:40;15.23;;;9.17;;
18228;SDS011;9239;50.932;3.142;2023-01-19T07:33:08;14.40;;;10.00;;
18228;SDS011;9239;50.932;3.142;2023-01-19T07:35:35;16.20;;;10.97;;
18228;SDS011;9239;50.932;3.142;2023-01-19T07:38:01;23.03;;;12.73;;
18228;SDS011;9239;50.932;3.142;2023-01-19T07:40:28;18.90;;;10.60;;
18228;SDS011;9239;50.932;3.142;2023-01-19T07:42:55;17.70;;;8.87;;
18228;SDS011;9239;50.932;3.142;2023-01-19T07:45:23;16.53;;;9.97;;
18228;SDS011;9239;50.932;3.142;2023-01-19T07:47:51;13.27;;;9.63;;
18228;SDS011;9239;50.932;3.142;2023-01-19T07:50:18;15.53;;;9.93;;
18228;SDS011;9239;50.932;3.142;2023-01-19T07:52:48;21.03;;;10.90;;
18228;SDS011;9239;50.932;3.142;2023-01-19T07:55:16;21.60;;;10.30;;
18228;SDS011;9239;50.932;3.142;2023-01-19T07:57:44;18.40;;;11.30;;
18228;SDS011;9239;50.932;3.142;2023-01-19T08:00:13;15.83;;;9.60;;
18228;SDS011;9239;50.932;3.142;2023-01-19T08:02:44;17.50;;;8.87;;
18228;SDS011;9239;50.932;3.142;2023-01-19T08:05:14;15.73;;;9.20;;
18228;SDS011;9239;50.932;3.142;2023-01-19T08:07:41;18.77;;;8.60;;
18228;SDS011;9239;50.932;3.142;2023-01-19T08:10:09;13.30;;;9.00;;
18228;SDS011;9239;50.932;3.142;2023-01-19T08:12:36;15.23;;;8.73;;
18228;SDS011;9239;50.932;3.142;2023-01-19T08:15:03;15.63;;;9.33;;
18228;SDS011;9239;50.932;3.142;2023-01-19T08:17:31;15.50;;;8.67;;
18228;SDS011;9239;50.932;3.142;2023-01-19T08:19:59;15.07;;;10.77;;
18228;SDS011;9239;50.932;3.142;2023-01-19T08:22:26;11.73;;;8.57;;
18228;SDS011;9239;50.932;3.142;2023-01-19T08:24:53;17.37;;;9.03;;
18228;SDS011;9239;50.932;3.142;2023-01-19T08:27:20;13.70;;;9.17;;
18228;SDS011;9239;50.932;3.142;2023-01-19T08:29:47;14.03;;;8.97;;
18228;SDS011;9239;50.932;3.142;2023-01-19T08:32:14;13.10;;;8.70;;
18228;SDS011;9239;50.932;3.142;2023-01-19T08:34:41;14.30;;;8.67;;
18228;SDS011;9239;50.932;3.142;2023-01-19T08:37:09;18.70;;;9.80;;
18228;SDS011;9239;50.932;3.142;2023-01-19T08:39:36;13.73;;;8.20;;
18228;SDS011;9239;50.932;3.142;2023-01-19T08:42:03;15.00;;;8.47;;
18228;SDS011;9239;50.932;3.142;2023-01-19T08:44:30;11.77;;;8.33;;
18228;SDS011;9239;50.932;3.142;2023-01-19T08:46:57;14.33;;;8.63;;
18228;SDS011;9239;50.932;3.142;2023-01-19T08:49:25;14.20;;;8.53;;
18228;SDS011;9239;50.932;3.142;2023-01-19T08:51:52;15.63;;;8.73;;
18228;SDS011;9239;50.932;3.142;2023-01-19T08:54:20;14.57;;;9.27;;
18228;SDS011;9239;50.932;3.142;2023-01-19T08:56:48;16.13;;;9.67;;
18228;SDS011;9239;50.932;3.142;2023-01-19T08:59:15;15.20;;;8.73;;
18228;SDS011;9239;50.932;3.142;2023-01-19T09:01:42;15.77;;;9.63;;
18228;SDS011;9239;50.932;3.142;2023-01-19T09:04:08;15.20;;;9.00;;
18228;SDS011;9239;50.932;3.142;2023-01-19T09:06:35;13.83;;;8.20;;
18228;SDS011;9239;50.932;3.142;2023-01-19T09:09:02;14.67;;;9.43;;
18228;SDS011;9239;50.932;3.142;2023-01-19T09:11:31;16.60;;;9.90;;
18228;SDS011;9239;50.932;3.142;2023-01-19T09:13:59;15.70;;;9.27;;
18228;SDS011;9239;50.932;3.142;2023-01-19T09:16:26;15.17;;;8.70;;
18228;SDS011;9239;50.932;3.142;2023-01-19T09:18:53;18.87;;;8.90;;
18228;SDS011;9239;50.932;3.142;2023-01-19T09:21:20;14.10;;;9.60;;
18228;SDS011;9239;50.932;3.142;2023-01-19T09:23:47;15.50;;;9.17;;
18228;SDS011;9239;50.932;3.142;2023-01-19T09:26:14;12.30;;;9.30;;
18228;SDS011;9239;50.932;3.142;2023-01-19T09:28:42;13.37;;;8.77;;
18228;SDS011;9239;50.932;3.142;2023-01-19T09:31:09;12.73;;;9.23;;
18228;SDS011;9239;50.932;3.142;2023-01-19T09:33:36;11.17;;;8.00;;
18228;SDS011;9239;50.932;3.142;2023-01-19T09:36:03;12.90;;;9.23;;
18228;SDS011;9239;50.932;3.142;2023-01-19T09:38:30;16.23;;;8.87;;
18228;SDS011;9239;50.932;3.142;2023-01-19T09:40:58;11.90;;;8.70;;
18228;SDS011;9239;50.932;3.142;2023-01-19T09:43:32;13.00;;;8.90;;
18228;SDS011;9239;50.932;3.142;2023-01-19T09:46:09;17.87;;;9.13;;
18228;SDS011;9239;50.932;3.142;2023-01-19T09:48:42;12.57;;;9.83;;
18228;SDS011;9239;50.932;3.142;2023-01-19T09:51:14;14.50;;;9.17;;
18228;SDS011;9239;50.932;3.142;2023-01-19T09:53:50;14.60;;;9.10;;
18228;SDS011;9239;50.932;3.142;2023-01-19T09:56:21;13.80;;;8.83;;
18228;SDS011;9239;50.932;3.142;2023-01-19T09:58:49;11.23;;;9.20;;
18228;SDS011;9239;50.932;3.142;2023-01-19T10:04:23;13.33;;;9.47;;
18228;SDS011;9239;50.932;3.142;2023-01-19T10:06:54;16.03;;;9.83;;
18228;SDS011;9239;50.932;3.142;2023-01-19T10:10:04;15.10;;;10.17;;
18228;SDS011;9239;50.932;3.142;2023-01-19T10:12:46;14.23;;;9.93;;
18228;SDS011;9239;50.932;3.142;2023-01-19T10:15:22;12.03;;;8.87;;
18228;SDS011;9239;50.932;3.142;2023-01-19T10:18:08;12.47;;;9.27;;
18228;SDS011;9239;50.932;3.142;2023-01-19T10:20:39;14.20;;;10.37;;
18228;SDS011;9239;50.932;3.142;2023-01-19T10:23:16;17.27;;;11.37;;
18228;SDS011;9239;50.932;3.142;2023-01-19T10:25:48;13.73;;;9.87;;
18228;SDS011;9239;50.932;3.142;2023-01-19T10:28:16;11.80;;;9.10;;
18228;SDS011;9239;50.932;3.142;2023-01-19T10:30:48;19.33;;;11.87;;
18228;SDS011;9239;50.932;3.142;2023-01-19T10:33:18;16.50;;;9.60;;
18228;SDS011;9239;50.932;3.142;2023-01-19T10:35:45;13.23;;;8.83;;
18228;SDS011;9239;50.932;3.142;2023-01-19T10:38:13;14.47;;;10.10;;
18228;SDS011;9239;50.932;3.142;2023-01-19T10:40:45;14.70;;;9.87;;
18228;SDS011;9239;50.932;3.142;2023-01-19T10:43:37;12.37;;;9.47;;
18228;SDS011;9239;50.932;3.142;2023-01-19T10:46:06;13.93;;;10.00;;
18228;SDS011;9239;50.932;3.142;2023-01-19T10:48:43;14.07;;;11.20;;
18228;SDS011;9239;50.932;3.142;2023-01-19T10:51:14;19.90;;;11.47;;
18228;SDS011;9239;50.932;3.142;2023-01-19T10:53:41;13.83;;;9.40;;
18228;SDS011;9239;50.932;3.142;2023-01-19T10:56:20;12.90;;;9.83;;
18228;SDS011;9239;50.932;3.142;2023-01-19T10:58:48;16.63;;;9.67;;
18228;SDS011;9239;50.932;3.142;2023-01-19T11:01:16;12.13;;;8.53;;
18228;SDS011;9239;50.932;3.142;2023-01-19T11:03:47;13.63;;;8.97;;
18228;SDS011;9239;50.932;3.142;2023-01-19T11:06:21;13.40;;;9.50;;
18228;SDS011;9239;50.932;3.142;2023-01-19T11:09:06;15.77;;;9.77;;
18228;SDS011;9239;50.932;3.142;2023-01-19T11:11:40;13.30;;;9.80;;
18228;SDS011;9239;50.932;3.142;2023-01-19T11:14:09;16.43;;;10.03;;
18228;SDS011;9239;50.932;3.142;2023-01-19T11:16:38;15.80;;;10.67;;
18228;SDS011;9239;50.932;3.142;2023-01-19T11:19:13;13.23;;;8.87;;
18228;SDS011;9239;50.932;3.142;2023-01-19T11:21:49;15.27;;;9.50;;
18228;SDS011;9239;50.932;3.142;2023-01-19T11:24:17;11.00;;;8.53;;
18228;SDS011;9239;50.932;3.142;2023-01-19T11:26:45;12.07;;;8.73;;
18228;SDS011;9239;50.932;3.142;2023-01-19T11:29:15;14.70;;;10.03;;
18228;SDS011;9239;50.932;3.142;2023-01-19T11:31:44;13.33;;;9.37;;
18228;SDS011;9239;50.932;3.142;2023-01-19T11:34:24;13.30;;;10.07;;
18228;SDS011;9239;50.932;3.142;2023-01-19T11:36:57;15.97;;;11.00;;
18228;SDS011;9239;50.932;3.142;2023-01-19T11:39:26;17.33;;;11.93;;
18228;SDS011;9239;50.932;3.142;2023-01-19T11:41:55;15.37;;;12.40;;
18228;SDS011;9239;50.932;3.142;2023-01-19T11:44:24;17.57;;;11.40;;
18228;SDS011;9239;50.932;3.142;2023-01-19T11:46:57;15.77;;;11.97;;
18228;SDS011;9239;50.932;3.142;2023-01-19T11:49:32;18.87;;;11.70;;
18228;SDS011;9239;50.932;3.142;2023-01-19T11:52:06;15.83;;;12.63;;
18228;SDS011;9239;50.932;3.142;2023-01-19T11:54:45;15.53;;;12.03;;
18228;SDS011;9239;50.932;3.142;2023-01-19T11:57:19;20.67;;;13.13;;
18228;SDS011;9239;50.932;3.142;2023-01-19T11:59:46;24.07;;;12.10;;
18228;SDS011;9239;50.932;3.142;2023-01-19T12:02:16;17.63;;;11.70;;
18228;SDS011;9239;50.932;3.142;2023-01-19T12:04:50;15.00;;;11.40;;
18228;SDS011;9239;50.932;3.142;2023-01-19T12:07:21;17.63;;;11.37;;
18228;SDS011;9239;50.932;3.142;2023-01-19T12:09:52;16.33;;;11.10;;
18228;SDS011;9239;50.932;3.142;2023-01-19T12:12:32;14.63;;;11.23;;
18228;SDS011;9239;50.932;3.142;2023-01-19T12:15:05;16.40;;;12.70;;
18228;SDS011;9239;50.932;3.142;2023-01-19T12:17:39;19.53;;;12.53;;
18228;SDS011;9239;50.932;3.142;2023-01-19T12:22:49;14.37;;;11.47;;
18228;SDS011;9239;50.932;3.142;2023-01-19T12:25:21;13.90;;;11.13;;
18228;SDS011;9239;50.932;3.142;2023-01-19T12:27:51;15.20;;;9.73;;
18228;SDS011;9239;50.932;3.142;2023-01-19T12:30:20;14.47;;;10.60;;
18228;SDS011;9239;50.932;3.142;2023-01-19T12:32:49;16.10;;;9.70;;
18228;SDS011;9239;50.932;3.142;2023-01-19T12:38:32;12.30;;;8.80;;
18228;SDS011;9239;50.932;3.142;2023-01-19T12:41:15;14.60;;;10.63;;
18228;SDS011;9239;50.932;3.142;2023-01-19T12:46:58;14.13;;;10.10;;
18228;SDS011;9239;50.932;3.142;2023-01-19T12:49:31;12.63;;;9.37;;
18228;SDS011;9239;50.932;3.142;2023-01-19T12:52:16;15.27;;;10.43;;
18228;SDS011;9239;50.932;3.142;2023-01-19T12:54:53;18.33;;;10.50;;
18228;SDS011;9239;50.932;3.142;2023-01-19T12:57:27;14.60;;;10.60;;
18228;SDS011;9239;50.932;3.142;2023-01-19T12:59:58;12.53;;;10.33;;
18228;SDS011;9239;50.932;3.142;2023-01-19T13:02:30;13.60;;;9.40;;
18228;SDS011;9239;50.932;3.142;2023-01-19T13:05:15;13.27;;;10.10;;
18228;SDS011;9239;50.932;3.142;2023-01-19T13:16:58;17.10;;;11.13;;
18228;SDS011;9239;50.932;3.142;2023-01-19T13:19:46;13.53;;;10.27;;
18228;SDS011;9239;50.932;3.142;2023-01-19T13:25:30;12.90;;;9.07;;
18228;SDS011;9239;50.932;3.142;2023-01-19T13:28:00;12.27;;;9.10;;
18228;SDS011;9239;50.932;3.142;2023-01-19T13:30:32;11.30;;;8.70;;
18228;SDS011;9239;50.932;3.142;2023-01-19T13:33:02;10.17;;;9.00;;
18228;SDS011;9239;50.932;3.142;2023-01-19T13:35:35;21.03;;;16.40;;
18228;SDS011;9239;50.932;3.142;2023-01-19T13:38:02;12.97;;;10.80;;
18228;SDS011;9239;50.932;3.142;2023-01-19T13:40:35;13.30;;;10.03;;
18228;SDS011;9239;50.932;3.142;2023-01-19T13:43:05;18.80;;;13.63;;
18228;SDS011;9239;50.932;3.142;2023-01-19T13:45:44;15.93;;;10.87;;
18228;SDS011;9239;50.932;3.142;2023-01-19T13:48:14;18.40;;;10.57;;
18228;SDS011;9239;50.932;3.142;2023-01-19T13:50:43;17.57;;;11.77;;
18228;SDS011;9239;50.932;3.142;2023-01-19T13:53:22;11.87;;;9.10;;
18228;SDS011;9239;50.932;3.142;2023-01-19T13:59:03;11.80;;;9.80;;
18228;SDS011;9239;50.932;3.142;2023-01-19T14:01:34;12.37;;;9.57;;
18228;SDS011;9239;50.932;3.142;2023-01-19T14:04:02;15.07;;;9.87;;
18228;SDS011;9239;50.932;3.142;2023-01-19T14:06:30;12.43;;;9.60;;
18228;SDS011;9239;50.932;3.142;2023-01-19T14:09:15;11.33;;;9.17;;
18228;SDS011;9239;50.932;3.142;2023-01-19T14:11:43;12.97;;;8.60;;
18228;SDS011;9239;50.932;3.142;2023-01-19T14:14:22;10.83;;;7.97;;
18228;SDS011;9239;50.932;3.142;2023-01-19T14:16:50;10.80;;;8.07;;
18228;SDS011;9239;50.932;3.142;2023-01-19T14:19:16;10.27;;;7.00;;
18228;SDS011;9239;50.932;3.142;2023-01-19T14:21:43;9.93;;;6.83;;
18228;SDS011;9239;50.932;3.142;2023-01-19T14:24:14;10.63;;;7.37;;
18228;SDS011;9239;50.932;3.142;2023-01-19T14:26:43;11.03;;;7.07;;
18228;SDS011;9239;50.932;3.142;2023-01-19T14:29:14;10.80;;;7.63;;
18228;SDS011;9239;50.932;3.142;2023-01-19T14:31:44;15.70;;;8.00;;
18228;SDS011;9239;50.932;3.142;2023-01-19T14:34:27;9.73;;;7.37;;
18228;SDS011;9239;50.932;3.142;2023-01-19T14:36:59;9.73;;;7.50;;
18228;SDS011;9239;50.932;3.142;2023-01-19T14:39:27;10.10;;;8.03;;
18228;SDS011;9239;50.932;3.142;2023-01-19T14:41:56;11.03;;;8.43;;
18228;SDS011;9239;50.932;3.142;2023-01-19T14:44:26;15.37;;;7.93;;
18228;SDS011;9239;50.932;3.142;2023-01-19T14:46:56;12.07;;;8.30;;
18228;SDS011;9239;50.932;3.142;2023-01-19T14:49:27;15.10;;;9.33;;
18228;SDS011;9239;50.932;3.142;2023-01-19T14:51:56;13.83;;;9.23;;
18228;SDS011;9239;50.932;3.142;2023-01-19T14:54:26;13.37;;;9.27;;
18228;SDS011;9239;50.932;3.142;2023-01-19T14:56:58;13.43;;;9.33;;
18228;SDS011;9239;50.932;3.142;2023-01-19T14:59:24;16.50;;;9.50;;
18228;SDS011;9239;50.932;3.142;2023-01-19T15:01:51;10.83;;;8.83;;
18228;SDS011;9239;50.932;3.142;2023-01-19T15:04:19;12.20;;;9.53;;
18228;SDS011;9239;50.932;3.142;2023-01-19T15:06:47;17.60;;;10.07;;
18228;SDS011;9239;50.932;3.142;2023-01-19T15:09:14;11.93;;;8.77;;
18228;SDS011;9239;50.932;3.142;2023-01-19T15:11:41;10.63;;;9.30;;
18228;SDS011;9239;50.932;3.142;2023-01-19T15:14:10;9.83;;;8.70;;
18228;SDS011;9239;50.932;3.142;2023-01-19T15:16:39;11.93;;;9.17;;
18228;SDS011;9239;50.932;3.142;2023-01-19T15:19:08;10.07;;;8.57;;
18228;SDS011;9239;50.932;3.142;2023-01-19T15:21:38;14.10;;;9.50;;
18228;SDS011;9239;50.932;3.142;2023-01-19T15:24:07;12.43;;;9.30;;
18228;SDS011;9239;50.932;3.142;2023-01-19T15:26:34;13.10;;;10.40;;
18228;SDS011;9239;50.932;3.142;2023-01-19T15:29:08;14.20;;;9.40;;